Aérodrome :
LOGIN :

S'inscrire | Disclaimer

   EN    FR    IT 

 










Légende :    VFR   VFR Marginal   IFR   IFR Intensif   IFR Très Intensif
Visi : 
Plafond : 
>= 8 km
>= 3000ft
5 à 8 km
1000 à 3000 ft
1500m à 5 km
500 à 1000 ft
800 à 1500m
200 à 500 ft
< 800m
< 200 ft
Symboles :   Orages  Brouillard  Fortes neiges  Fortes précipitations  Vent > 20 kt
SIGMETs :   Divers  Orages  Givrage  Turbulence  Onde Orograph.  Cendres Volcan.







- Altitude de l'aérodrome : 512 ft
- Code IATA : URO
- Voir les cartes d'approche


LFOP - Rouen Vallée de Seine

DERNIER METAR :
  • 251430Z AUTO 00000KT CAVOK 20/12 Q1018 TEMPO SHRA BKN020TCU

METARs EXPIRÉS :
  • 251400Z AUTO VRB02KT CAVOK 19/12 Q1018 TEMPO SHRA BKN020TCU
  • 251330Z AUTO VRB02KT 9999 BKN029 OVC060 19/12 Q1018 TEMPO SHRA BKN020TCU
  • 251300Z AUTO 27003KT 230V330 9999 SCT028 BKN048 OVC062 19/12 Q1018 TEMPO SHRA BKN020TCU
  • 251230Z AUTO 00000KT CAVOK 19/12 Q1018 TEMPO SHRA BKN020TCU
  • 251200Z AUTO VRB02KT CAVOK 19/11 Q1018 TEMPO SHRA BKN020TCU

TAF TAF LFOP
Valide du 25 à 12h jusqu'au 26 à 12h UTC


251100Z 2512/2612 VRB03KT 9999 SCT020 BKN060
TEMPO 2512/2517 SHRA BKN020TCU
TEMPO 2517/2609 2000 -RA BKN005
ATIS : +33 2 35 80 80 34
Météo : +33 2 32 86 52 80
Pas de NOTAMs connus pour ce terrain.



MET'MAP, la Météo Aéronautique d'un coup d'oeil ! - Copyright ORBIFLY Décembre 2007 - Disclaimer

ORBIFLY MET'MAP TEAM :

Programmation & Développement : Alexandra Zaïnal
Conception & Développement : Baudouin d'Aumeries
Co-Programmation & Développement : Marc-Olivier Méhu
Soutien technique & logistique : Manuel Goepfert

Contact : metmap@orbifly.com




SOURCES & CREDITS :

   NOAA